Time;durP1;ratioP1;P1;durP2;ratioP2;P2;SDS_P1;SDS_P2;PMS_P1;PMS_P2;Temp;Humidity;BMP_temperature;BMP_pressure;BME280_temperature;BME280_humidity;BME280_pressure;Samples;Min_cycle;Max_cycle;Signal;HPM_P1;HPM_P2
2023/11/08 00:01:55;;;;;;;19.90;14.10;;;;;;;7.80;84.68;98506.24;224555;1291;24274;-82
2023/11/08 00:07:10;;;;;;;21.30;13.50;;;;;;;7.86;84.64;98516.74;224372;1292;22627;-81
2023/11/08 00:12:48;;;;;;;;;;;;;;;;;;;;;
2023/11/08 00:18:01;;;;;;;24.00;16.10;;;;;;;7.96;84.57;98520.15;224502;1292;22599;-81
2023/11/08 00:23:06;;;;;;;24.50;17.20;;;;;;;7.95;84.59;98524.80;224599;1292;22559;-82
2023/11/08 00:28:11;;;;;;;30.00;21.80;;;;;;;7.93;84.22;98532.60;224501;1292;24248;-81
2023/11/08 00:33:26;;;;;;;33.40;21.90;;;;;;;7.88;84.65;98532.27;224588;1292;22573;-83
2023/11/08 00:38:38;;;;;;;37.20;24.10;;;;;;;7.83;84.78;98519.73;224597;1292;22596;-83
2023/11/08 00:43:42;;;;;;;31.90;22.20;;;;;;;7.77;84.88;98512.67;224607;1292;22563;-82
2023/11/08 00:48:45;;;;;;;34.10;22.60;;;;;;;7.71;85.03;98510.39;224592;1292;22629;-82
2023/11/08 00:54:01;;;;;;;32.50;24.10;;;;;;;7.66;85.25;98506.13;224608;1292;22572;-82
2023/11/08 00:59:39;;;;;;;34.50;24.00;;;;;;;7.62;85.22;98510.35;224362;1292;22569;-82
2023/11/08 01:04:55;;;;;;;33.20;24.50;;;;;;;7.62;85.21;98506.94;224591;1286;25267;-80
2023/11/08 01:09:59;;;;;;;31.30;22.70;;;;;;;7.59;85.52;98498.52;224499;1292;22561;-81
2023/11/08 01:15:08;;;;;;;28.80;21.60;;;;;;;7.56;85.48;98487.25;224491;1292;22624;-81
2023/11/08 01:20:15;;;;;;;29.60;21.20;;;;;;;7.54;85.64;98485.79;224484;1286;25312;-81
2023/11/08 01:25:35;;;;;;;;;;;;;;;;;;;;;
2023/11/08 01:30:50;;;;;;;30.20;21.00;;;;;;;7.44;85.36;98486.20;224556;1292;22570;-81
2023/11/08 01:35:52;;;;;;;34.40;23.30;;;;;;;7.40;85.65;98478.20;224585;1289;22562;-81
2023/11/08 01:40:55;;;;;;;29.80;22.20;;;;;;;7.41;86.17;98471.30;224560;1292;22559;-82
2023/11/08 01:46:07;;;;;;;32.50;24.40;;;;;;;7.42;85.94;98466.80;224415;1286;273219;-82
2023/11/08 01:51:11;;;;;;;27.60;21.10;;;;;;;7.41;86.29;98473.52;224526;1290;22554;-81
2023/11/08 01:56:36;;;;;;;28.20;21.30;;;;;;;7.40;85.76;98469.06;224491;1292;25328;-82
2023/11/08 02:01:43;;;;;;;27.80;20.70;;;;;;;7.39;86.45;98470.26;224496;1275;22563;-80
2023/11/08 02:07:01;;;;;;;;;;;;;;;;;;;;;
2023/11/08 02:12:07;;;;;;;24.90;17.30;;;;;;;7.39;86.24;98470.25;224578;1292;25353;-82
2023/11/08 02:17:14;;;;;;;21.20;15.70;;;;;;;7.41;86.43;98472.46;224570;1292;22673;-80
2023/11/08 02:22:17;;;;;;;21.80;14.70;;;;;;;7.44;86.82;98477.55;224654;1288;22562;-82
2023/11/08 02:27:20;;;;;;;19.60;12.90;;;;;;;7.46;86.20;98473.30;224372;1292;25892;-82
2023/11/08 02:32:23;;;;;;;14.40;10.00;;;;;;;7.48;86.65;98477.30;224484;1276;24284;-82
2023/11/08 02:37:28;;;;;;;13.70;9.80;;;;;;;7.52;86.41;98488.98;224605;1288;25931;-81
2023/11/08 02:42:33;;;;;;;13.00;9.60;;;;;;;7.56;86.45;98497.02;224623;1273;22566;-80
2023/11/08 02:47:42;;;;;;;15.00;9.30;;;;;;;7.61;86.43;98494.75;224581;1289;22586;-81
2023/11/08 02:52:53;;;;;;;14.60;9.80;;;;;;;7.64;86.35;98487.86;224511;1280;22636;-81
2023/11/08 02:57:56;;;;;;;13.50;10.40;;;;;;;7.68;86.04;98486.95;224593;1285;22578;-84
2023/11/08 03:03:01;;;;;;;12.40;9.40;;;;;;;7.68;86.05;98490.90;224582;1289;22548;-81
2023/11/08 03:08:09;;;;;;;15.20;10.00;;;;;;;7.65;85.90;98490.79;224596;1292;22523;-81
2023/11/08 03:14:02;;;;;;;12.70;9.80;;;;;;;7.61;86.01;98492.98;224539;1289;22555;-83
2023/11/08 03:19:07;;;;;;;12.50;9.90;;;;;;;7.59;85.82;98501.39;224524;1282;22611;-81
2023/11/08 03:24:15;;;;;;;12.20;8.60;;;;;;;7.60;86.27;98508.33;224529;1291;22682;-82
2023/11/08 03:29:18;;;;;;;12.90;8.80;;;;;;;7.61;86.15;98519.39;224658;1288;22569;-82
2023/11/08 03:34:28;;;;;;;10.80;8.30;;;;;;;7.62;85.77;98518.48;224594;1292;22559;-82
2023/11/08 03:39:33;;;;;;;10.70;8.60;;;;;;;7.62;85.79;98516.30;224518;1286;22559;-82
2023/11/08 03:44:40;;;;;;;12.30;8.50;;;;;;;7.62;86.03;98520.25;224637;1286;22559;-82
2023/11/08 03:49:49;;;;;;;10.60;7.90;;;;;;;7.62;86.13;98523.92;224615;1286;22610;-82
2023/11/08 03:55:10;;;;;;;11.50;8.70;;;;;;;7.62;85.82;98526.33;224661;1292;22575;-83
2023/11/08 04:00:18;;;;;;;9.40;7.80;;;;;;;7.62;85.98;98531.65;224635;1289;22546;-82
2023/11/08 04:05:21;;;;;;;7.20;6.50;;;;;;;7.62;86.11;98537.23;224522;1292;22578;-81
2023/11/08 04:10:31;;;;;;;8.40;7.40;;;;;;;7.63;85.95;98540.26;224487;1291;22560;-81
2023/11/08 04:15:39;;;;;;;9.70;6.80;;;;;;;7.63;85.87;98539.53;224487;1286;22670;-82
2023/11/08 04:20:46;;;;;;;8.90;6.80;;;;;;;7.64;85.85;98542.26;224526;1291;24990;-82
2023/11/08 04:25:50;;;;;;;8.20;6.70;;;;;;;7.66;86.02;98546.06;224582;1289;24537;-82
2023/11/08 04:30:53;;;;;;;7.70;5.80;;;;;;;7.68;85.93;98551.80;224597;1288;25264;-81
2023/11/08 04:35:59;;;;;;;9.30;6.00;;;;;;;7.68;86.02;98554.92;224626;1289;22552;-81
2023/11/08 04:41:05;;;;;;;7.50;6.30;;;;;;;7.67;85.95;98558.21;224661;1292;25640;-82
2023/11/08 04:46:08;;;;;;;7.30;6.50;;;;;;;7.67;86.15;98562.02;224632;1289;22684;-80
2023/11/08 04:51:14;;;;;;;7.90;6.50;;;;;;;7.67;86.37;98563.41;224535;1291;22563;-81
2023/11/08 04:56:17;;;;;;;8.90;7.40;;;;;;;7.64;86.31;98562.23;224618;1292;22562;-80
2023/11/08 05:01:22;;;;;;;8.20;5.90;;;;;;;7.56;85.97;98562.42;224415;1292;22567;-81
2023/11/08 05:06:30;;;;;;;7.90;6.20;;;;;;;7.49;86.39;98565.20;224559;1292;22552;-79
2023/11/08 05:11:58;;;;;;;;;;;;;;;;;;;;;
2023/11/08 05:17:11;;;;;;;7.30;5.70;;;;;;;7.38;86.76;98568.81;224530;1292;22698;-81
2023/11/08 05:22:25;;;;;;;6.90;6.20;;;;;;;7.39;86.77;98576.30;224631;1289;22581;-81
2023/11/08 05:27:44;;;;;;;7.10;6.30;;;;;;;7.41;86.99;98576.50;224574;1292;22573;-81
2023/11/08 05:32:53;;;;;;;7.40;6.30;;;;;;;7.44;86.55;98583.58;224609;1292;22558;-81
2023/11/08 05:37:56;;;;;;;6.50;5.80;;;;;;;7.44;86.82;98583.21;224374;1292;22567;-81
2023/11/08 05:43:06;;;;;;;7.70;6.30;;;;;;;7.44;86.40;98588.96;224455;1291;22562;-81
2023/11/08 05:48:09;;;;;;;;;;;;;;;7.48;86.96;98601.77;224491;1292;22701;-81
2023/11/08 05:53:20;;;;;;;7.20;5.40;;;;;;;7.51;86.95;98609.67;224526;1292;22606;-81
2023/11/08 05:58:22;;;;;;;;;;;;;;;7.54;87.05;98612.59;224618;1292;22535;-81
2023/11/08 06:03:36;;;;;;;6.00;4.90;;;;;;;7.56;86.87;98616.79;224563;1292;22570;-81
2023/11/08 06:08:44;;;;;;;6.00;5.40;;;;;;;7.56;86.46;98621.39;224538;1289;22624;-82
2023/11/08 06:13:48;;;;;;;5.40;4.90;;;;;;;7.55;85.99;98628.33;224593;1288;25233;-82
2023/11/08 06:18:56;;;;;;;7.00;5.60;;;;;;;7.53;86.53;98637.92;224594;1286;25378;-81
2023/11/08 06:24:22;;;;;;;7.30;5.50;;;;;;;7.49;86.49;98647.50;224603;1292;22611;-81
2023/11/08 06:29:27;;;;;;;6.60;6.00;;;;;;;7.47;86.38;98651.29;224638;1286;24251;-80
2023/11/08 06:34:30;;;;;;;7.20;6.50;;;;;;;7.47;86.53;98657.03;224636;1289;22693;-81
2023/11/08 06:39:35;;;;;;;6.50;5.90;;;;;;;7.48;86.60;98663.64;224590;1292;22582;-81
2023/11/08 06:44:46;;;;;;;7.20;6.50;;;;;;;7.47;86.60;98673.40;224380;1291;25294;-81
2023/11/08 06:50:02;;;;;;;7.70;6.50;;;;;;;7.46;86.66;98678.20;224376;1292;22538;-81
2023/11/08 06:55:25;;;;;;;6.50;5.60;;;;;;;7.48;86.80;98687.98;224291;1273;22590;-81
2023/11/08 07:00:52;;;;;;;6.80;6.20;;;;;;;7.50;87.03;98692.61;224146;1270;24965;-81
2023/11/08 07:06:20;;;;;;;11.10;9.10;;;;;;;7.50;86.87;98699.48;223716;1276;22556;-80
2023/11/08 07:11:24;;;;;;;10.60;8.90;;;;;;;7.49;86.48;98707.11;223978;1280;26081;-82
2023/11/08 07:16:39;;;;;;;7.20;6.50;;;;;;;7.55;86.80;98707.88;224013;1280;22558;-81
2023/11/08 07:21:45;;;;;;;6.80;5.50;;;;;;;7.60;87.06;98709.52;223793;1284;22583;-86
2023/11/08 07:27:00;;;;;;;8.00;7.20;;;;;;;7.58;86.74;98714.45;223646;1274;22555;-80
2023/11/08 07:32:12;;;;;;;8.10;7.30;;;;;;;7.58;86.67;98716.83;223911;1277;22552;-82
2023/11/08 07:37:18;;;;;;;8.00;6.80;;;;;;;7.63;86.90;98716.98;224315;1267;22547;-81
2023/11/08 07:42:26;;;;;;;9.00;7.70;;;;;;;7.70;87.04;98721.88;223937;1268;22559;-82
2023/11/08 07:47:33;;;;;;;9.00;7.80;;;;;;;7.81;86.92;98718.25;223992;1286;23995;-81
2023/11/08 07:52:36;;;;;;;8.80;7.80;;;;;;;7.91;87.03;98717.10;223968;1270;24373;-80
2023/11/08 07:57:40;;;;;;;11.70;9.00;;;;;;;8.00;86.62;98721.27;223800;1277;22552;-82
2023/11/08 08:02:49;;;;;;;8.90;8.00;;;;;;;8.09;86.49;98722.11;223906;1277;22569;-82
2023/11/08 08:08:45;;;;;;;;;;;;;;;8.12;86.56;98724.55;224020;1289;23146;-82
2023/11/08 08:14:12;;;;;;;10.70;8.70;;;;;;;8.21;86.48;98730.07;224484;1276;22613;-84
2023/11/08 08:19:29;;;;;;;9.80;7.80;;;;;;;8.41;86.60;98729.46;223993;1274;22658;-85
2023/11/08 08:24:48;;;;;;;8.50;6.90;;;;;;;8.64;86.55;98731.60;223770;1276;22588;-85
2023/11/08 08:30:23;;;;;;;9.00;7.10;;;;;;;8.82;86.04;98727.23;223798;1271;22596;-83
2023/11/08 08:36:34;;;;;;;9.10;7.20;;;;;;;8.85;85.34;98728.23;221986;1295;22720;-86
2023/11/08 08:41:59;;;;;;;9.10;6.90;;;;;;;8.87;84.90;98729.63;221985;1285;23186;-84
2023/11/08 08:48:08;;;;;;;7.80;6.10;;;;;;;8.96;84.23;98729.05;221507;1300;22637;-86
2023/11/08 08:53:24;;;;;;;8.90;6.60;;;;;;;8.99;84.42;98735.88;222076;1295;22595;-87
2023/11/08 08:58:46;;;;;;;6.70;5.90;;;;;;;9.10;84.14;98742.39;222810;1292;25621;-83
2023/11/08 09:04:23;;;;;;;;;;;;;;;;;;;;;
2023/11/08 09:09:48;;;;;;;5.00;4.50;;;;;;;9.17;82.95;98744.80;223640;1286;22585;-87
2023/11/08 09:15:01;;;;;;;6.10;5.40;;;;;;;9.25;83.36;98742.50;222086;1295;22642;-87
2023/11/08 09:21:06;;;;;;;6.10;5.20;;;;;;;9.39;82.98;98737.35;222894;1297;22497;-86
2023/11/08 09:27:23;;;;;;;6.30;4.60;;;;;;;9.48;82.30;98739.43;222287;1297;22588;-86
2023/11/08 09:33:17;;;;;;;6.50;4.00;;;;;;;9.65;81.55;98735.60;223383;1292;22583;-86
2023/11/08 09:38:28;;;;;;;8.40;3.80;;;;;;;9.88;81.41;98731.30;223474;1288;22629;-86
2023/11/08 09:43:57;;;;;;;4.90;3.40;;;;;;;9.99;80.78;98729.08;223709;1291;22614;-86
2023/11/08 09:49:09;;;;;;;8.30;2.80;;;;;;;10.13;80.31;98732.45;223762;1288;22562;-86
2023/11/08 09:54:32;;;;;;;179.80;18.40;;;;;;;10.24;80.03;98731.83;223688;1289;22599;-86
2023/11/08 10:00:07;;;;;;;96.20;9.90;;;;;;;10.48;79.87;98729.64;223722;1293;22762;-87
2023/11/08 10:06:32;;;;;;;;;;;;;;;;;;;;;
2023/11/08 10:12:41;;;;;;;28.20;3.90;;;;;;;11.18;79.22;98724.73;224348;1292;22579;-84
2023/11/08 10:18:07;;;;;;;;;;;;;;;;;;;;;
2023/11/08 10:24:31;;;;;;;336.00;35.20;;;;;;;11.59;76.74;98716.79;224282;1286;23059;-83
2023/11/08 10:30:15;;;;;;;33.20;5.10;;;;;;;11.65;75.67;98715.31;222580;1295;22565;-86
2023/11/08 10:35:52;;;;;;;2.10;1.10;;;;;;;11.62;74.08;98714.81;222466;1295;25350;-86
2023/11/08 10:42:17;;;;;;;3.40;1.40;;;;;;;11.48;73.40;98709.94;222811;1295;22842;-86
2023/11/08 10:48:26;;;;;;;1.20;1.10;;;;;;;11.45;73.71;98703.27;222733;1294;22583;-85
2023/11/08 10:54:59;;;;;;;3.30;1.10;;;;;;;11.45;73.18;98701.12;222744;1282;22570;-88
2023/11/08 11:00:22;;;;;;;4.50;1.20;;;;;;;11.49;73.09;98699.36;223564;1289;22543;-85
2023/11/08 11:05:52;;;;;;;2.50;0.90;;;;;;;11.56;72.86;98690.77;224595;1292;22592;-89
2023/11/08 11:11:20;;;;;;;1.90;1.20;;;;;;;11.55;72.67;98686.98;224384;1292;22576;-86
2023/11/08 11:16:47;;;;;;;1.90;1.20;;;;;;;11.53;72.26;98684.00;224311;1276;22566;-84
2023/11/08 11:22:01;;;;;;;1.70;1.30;;;;;;;11.42;71.96;98678.65;224211;1285;22572;-84
2023/11/08 11:27:59;;;;;;;2.70;1.40;;;;;;;11.26;71.91;98676.70;223809;1276;22562;-82
2023/11/08 11:33:34;;;;;;;2.30;1.50;;;;;;;11.11;71.94;98680.95;224108;1292;25291;-83
2023/11/08 11:39:11;;;;;;;4.40;1.40;;;;;;;11.00;71.70;98681.64;223952;1286;23406;-85
2023/11/08 11:45:00;;;;;;;2.20;1.20;;;;;;;10.92;71.06;98681.06;223837;1292;22885;-84
2023/11/08 11:50:43;;;;;;;1.90;1.10;;;;;;;10.94;71.29;98681.54;222506;1276;22597;-84
2023/11/08 11:55:56;;;;;;;1.70;1.00;;;;;;;11.09;71.60;98683.21;222968;1289;22505;-84
2023/11/08 12:01:32;;;;;;;2.20;1.10;;;;;;;11.27;71.46;98686.70;223384;1295;22569;-84
2023/11/08 12:06:37;;;;;;;3.30;1.80;;;;;;;11.42;71.03;98687.08;223752;1295;22565;-83
2023/11/08 12:12:26;;;;;;;;;;;;;;;;;;;;;
2023/11/08 12:17:57;;;;;;;4.40;1.70;;;;;;;11.44;70.74;98692.13;222984;1290;22561;-85
2023/11/08 12:23:47;;;;;;;6.60;2.40;;;;;;;11.37;71.13;98697.27;222511;1295;22625;-84
2023/11/08 12:29:37;;;;;;;20.10;2.60;;;;;;;11.30;71.23;98692.73;222744;1298;22598;-85
2023/11/08 12:34:55;;;;;;;2.00;1.50;;;;;;;11.21;70.73;98696.08;222770;1299;22720;-86
2023/11/08 12:40:58;;;;;;;2.70;1.30;;;;;;;11.11;70.61;98700.72;222938;1298;22622;-87
2023/11/08 12:47:11;;;;;;;2.20;1.50;;;;;;;10.94;71.11;98702.52;221928;1301;23144;-83
2023/11/08 12:52:07;;;;;;;2.70;1.30;;;;;;;10.83;70.83;98697.39;222755;1295;24209;-83
2023/11/08 12:58:01;;;;;;;2.50;1.40;;;;;;;10.76;70.91;98697.20;223130;1289;22595;-83
2023/11/08 13:03:29;;;;;;;3.30;1.50;;;;;;;10.72;71.16;98700.34;223164;1292;22672;-84
2023/11/08 13:08:32;;;;;;;2.40;1.70;;;;;;;10.69;71.21;98698.52;223999;1295;22615;-84
2023/11/08 13:13:58;;;;;;;1.60;1.40;;;;;;;10.65;71.44;98698.66;223967;1289;22576;-85
2023/11/08 13:19:31;;;;;;;1.40;1.30;;;;;;;10.62;71.74;98695.83;223694;1276;22801;-86
2023/11/08 13:25:03;;;;;;;1.60;1.00;;;;;;;10.58;71.88;98691.85;223811;1297;22563;-84
2023/11/08 13:30:12;;;;;;;2.20;1.10;;;;;;;10.48;71.60;98696.45;223629;1292;22565;-84
2023/11/08 13:35:55;;;;;;;2.50;1.30;;;;;;;10.43;71.61;98694.77;220220;1305;544931;-86
2023/11/08 13:41:21;;;;;;;2.20;1.70;;;;;;;10.28;71.97;98697.21;224431;1289;22482;-83
2023/11/08 13:46:29;;;;;;;3.50;2.10;;;;;;;10.14;72.29;98700.70;223615;1282;1083074;-83
2023/11/08 13:51:38;;;;;;;;;;;;;;;9.95;72.05;98700.29;224766;1276;22500;-84
2023/11/08 13:56:46;;;;;;;6.00;2.40;;;;;;;9.73;72.33;98710.58;226106;1276;24244;-83
2023/11/08 14:01:55;;;;;;;3.80;2.50;;;;;;;9.62;72.99;98713.73;225920;1273;22544;-84
2023/11/08 14:07:20;;;;;;;6.00;3.00;;;;;;;9.53;73.22;98713.08;226605;1278;22758;-83
2023/11/08 14:12:58;;;;;;;5.30;2.80;;;;;;;9.45;73.51;98718.17;226723;1272;24295;-85
2023/11/08 14:18:07;;;;;;;5.50;2.90;;;;;;;9.38;73.78;98717.02;226838;1278;22625;-85
2023/11/08 14:23:12;;;;;;;6.70;3.30;;;;;;;9.37;74.06;98713.86;226574;1272;23169;-83
2023/11/08 14:28:35;;;;;;;4.10;2.90;;;;;;;9.36;74.18;98709.56;225175;1278;22566;-81
2023/11/08 14:33:46;;;;;;;3.10;2.30;;;;;;;9.30;74.19;98716.07;225237;1278;22539;-81
2023/11/08 14:38:53;;;;;;;3.90;2.50;;;;;;;9.27;74.37;98723.80;225364;1279;22546;-80
2023/11/08 14:44:05;;;;;;;4.20;2.10;;;;;;;9.26;74.66;98720.58;225235;1273;22540;-79
2023/11/08 14:49:16;;;;;;;4.50;2.10;;;;;;;9.25;75.10;98722.51;225244;1275;22664;-82
2023/11/08 14:55:22;;;;;;;4.80;2.40;;;;;;;9.25;74.97;98721.29;225249;1272;22623;-85
2023/11/08 15:00:27;;;;;;;9.50;5.90;;;;;;;9.24;75.22;98730.86;225661;1275;22647;-82
2023/11/08 15:05:29;;;;;;;6.20;4.00;;;;;;;9.20;75.29;98730.27;226138;1276;22603;-82
2023/11/08 15:10:35;;;;;;;11.40;6.90;;;;;;;9.16;75.90;98730.90;225551;1278;22590;-82
2023/11/08 15:15:42;;;;;;;;;;;;;;;9.13;76.46;98734.71;225530;1277;22528;-82
2023/11/08 15:20:51;;;;;;;4.50;2.80;;;;;;;9.11;76.68;98734.14;225682;1277;22608;-80
2023/11/08 15:25:54;;;;;;;2.80;2.40;;;;;;;9.06;76.76;98735.31;225822;1263;22544;-82
2023/11/08 15:31:05;;;;;;;4.80;2.30;;;;;;;8.96;77.10;98738.60;225923;1277;25415;-81
2023/11/08 15:36:07;;;;;;;6.90;3.40;;;;;;;8.91;77.31;98735.16;226303;1278;22649;-84
2023/11/08 15:41:27;;;;;;;7.50;3.30;;;;;;;8.83;77.12;98734.30;226494;1275;22568;-83
2023/11/08 15:46:36;;;;;;;6.40;3.40;;;;;;;8.75;77.48;98738.88;226183;1277;22539;-83
2023/11/08 15:51:41;;;;;;;5.10;3.00;;;;;;;8.67;77.20;98739.10;226315;1278;22558;-83
2023/11/08 15:56:47;;;;;;;4.70;2.40;;;;;;;8.63;77.57;98737.85;226435;1278;22894;-82
2023/11/08 16:01:57;;;;;;;5.50;2.80;;;;;;;8.58;77.31;98735.92;226440;1277;22556;-83
2023/11/08 16:07:00;;;;;;;8.50;3.30;;;;;;;8.57;77.46;98735.98;226414;1277;22577;-83
2023/11/08 16:12:08;;;;;;;5.80;3.30;;;;;;;8.55;77.56;98740.48;226241;1278;22543;-83
2023/11/08 16:17:11;;;;;;;5.30;3.00;;;;;;;8.56;77.64;98743.72;226314;1278;22544;-83
2023/11/08 16:22:16;;;;;;;5.90;3.10;;;;;;;8.54;77.35;98744.80;226410;1278;24237;-83
2023/11/08 16:27:20;;;;;;;6.20;3.40;;;;;;;8.50;77.41;98747.73;226557;1277;22543;-82
2023/11/08 16:32:22;;;;;;;7.00;4.40;;;;;;;8.48;77.53;98744.15;226382;1278;22557;-82
2023/11/08 16:37:45;;;;;;;8.60;5.30;;;;;;;8.48;77.62;98750.27;226419;1254;22543;-82
2023/11/08 16:42:53;;;;;;;7.80;4.60;;;;;;;8.47;77.63;98746.16;226229;1278;22529;-82
2023/11/08 16:48:02;;;;;;;7.50;3.80;;;;;;;8.44;77.53;98748.48;226487;1276;22537;-83
2023/11/08 16:53:07;;;;;;;6.90;4.00;;;;;;;8.42;77.56;98757.84;226243;1278;25262;-83
2023/11/08 16:58:22;;;;;;;6.30;3.90;;;;;;;8.42;77.56;98755.19;226283;1277;22545;-83
2023/11/08 17:03:45;;;;;;;7.30;4.20;;;;;;;8.43;77.55;98755.59;226387;1278;22545;-84
2023/11/08 17:08:49;;;;;;;12.00;7.00;;;;;;;8.43;77.43;98754.14;226303;1274;22530;-83
2023/11/08 17:14:02;;;;;;;7.40;4.60;;;;;;;8.44;77.56;98758.48;226419;1274;22550;-83
2023/11/08 17:19:06;;;;;;;7.20;3.80;;;;;;;8.44;77.13;98760.42;226272;1273;22572;-83
2023/11/08 17:24:09;;;;;;;8.70;3.90;;;;;;;8.42;77.49;98765.83;226224;1277;22581;-83
2023/11/08 17:29:15;;;;;;;6.50;4.00;;;;;;;8.43;77.30;98769.11;226128;1278;22550;-82
2023/11/08 17:34:29;;;;;;;6.80;3.70;;;;;;;8.43;77.45;98776.78;226329;1263;24221;-83
2023/11/08 17:39:32;;;;;;;8.00;3.80;;;;;;;8.42;76.88;98776.09;226316;1277;22572;-82
2023/11/08 17:44:36;;;;;;;8.60;5.10;;;;;;;8.39;77.06;98782.48;226597;1275;22566;-83
2023/11/08 17:49:48;;;;;;;7.80;5.50;;;;;;;8.34;77.07;98785.44;226628;1275;22640;-83
2023/11/08 17:55:03;;;;;;;7.00;4.20;;;;;;;8.23;77.14;98790.18;226754;1275;22528;-83
2023/11/08 18:00:09;;;;;;;5.40;3.20;;;;;;;8.09;76.77;98791.93;226852;1275;22695;-82
2023/11/08 18:05:21;;;;;;;10.40;4.50;;;;;;;7.95;77.18;98792.89;226723;1273;22541;-83
2023/11/08 18:10:30;;;;;;;8.30;4.50;;;;;;;7.85;77.10;98796.84;226868;1273;22570;-82
2023/11/08 18:15:36;;;;;;;8.50;4.30;;;;;;;7.78;77.36;98799.39;226768;1275;22558;-82
2023/11/08 18:20:39;;;;;;;7.00;4.10;;;;;;;7.75;77.42;98804.48;226785;1270;22493;-83
2023/11/08 18:25:46;;;;;;;8.20;4.70;;;;;;;7.74;77.70;98806.66;226693;1274;22552;-83
2023/11/08 18:30:51;;;;;;;8.80;4.80;;;;;;;7.74;77.78;98803.34;226703;1275;24341;-84
2023/11/08 18:35:59;;;;;;;11.00;5.30;;;;;;;7.72;77.79;98803.19;226813;1269;23307;-84
2023/11/08 18:41:05;;;;;;;9.10;5.20;;;;;;;7.69;77.70;98803.21;226936;1275;22577;-84
2023/11/08 18:46:10;;;;;;;9.10;5.00;;;;;;;7.61;77.67;98807.62;226795;1275;22558;-83
2023/11/08 18:51:17;;;;;;;8.90;5.10;;;;;;;7.49;77.69;98815.11;226745;1275;22526;-83
2023/11/08 18:56:23;;;;;;;10.40;5.10;;;;;;;7.36;77.83;98823.29;226646;1275;23855;-83
2023/11/08 19:01:29;;;;;;;8.20;4.80;;;;;;;7.23;77.50;98822.60;226803;1273;25485;-84
2023/11/08 19:06:41;;;;;;;9.10;5.10;;;;;;;7.10;77.84;98821.63;226731;1275;22531;-83
2023/11/08 19:11:46;;;;;;;9.10;5.60;;;;;;;6.97;78.03;98825.21;226701;1275;22543;-82
2023/11/08 19:16:54;;;;;;;10.10;5.70;;;;;;;6.86;78.15;98827.16;227011;1275;22539;-84
2023/11/08 19:21:57;;;;;;;11.10;5.80;;;;;;;6.74;78.65;98827.69;227300;1275;22538;-83
2023/11/08 19:27:02;;;;;;;10.20;6.10;;;;;;;6.64;78.90;98829.84;226849;1274;22544;-84
2023/11/08 19:32:13;;;;;;;12.00;7.50;;;;;;;6.55;78.62;98826.63;226664;1275;22573;-84
2023/11/08 19:37:34;;;;;;;13.10;7.60;;;;;;;6.46;78.75;98831.08;226755;1275;22540;-83
2023/11/08 19:42:40;;;;;;;14.70;8.40;;;;;;;6.37;78.98;98832.66;226850;1275;22544;-83
2023/11/08 19:47:50;;;;;;;14.40;7.90;;;;;;;6.26;79.11;98839.42;226687;1275;22533;-83
2023/11/08 19:53:15;;;;;;;14.60;7.70;;;;;;;6.15;79.65;98843.06;226738;1275;22561;-83
2023/11/08 19:58:29;;;;;;;15.40;8.20;;;;;;;6.05;80.02;98845.29;226871;1274;22561;-84
2023/11/08 20:03:34;;;;;;;15.40;8.20;;;;;;;5.98;79.99;98843.24;226884;1273;22533;-83
2023/11/08 20:09:03;;;;;;;13.10;8.70;;;;;;;5.90;80.14;98844.52;226686;1275;22736;-85
2023/11/08 20:14:08;;;;;;;16.90;9.40;;;;;;;5.84;80.40;98846.71;226670;1275;22601;-81
2023/11/08 20:19:24;;;;;;;20.40;10.00;;;;;;;5.84;80.73;98844.09;226641;1275;22544;-84
2023/11/08 20:24:53;;;;;;;;;;;;;;;;;;;;;
2023/11/08 20:30:03;;;;;;;18.10;10.40;;;;;;;5.99;81.10;98842.27;226923;1275;22543;-83
2023/11/08 20:35:09;;;;;;;18.50;9.90;;;;;;;6.08;80.88;98841.55;226749;1275;22570;-83
2023/11/08 20:40:15;;;;;;;17.40;10.30;;;;;;;6.15;81.26;98845.29;226932;1275;23028;-83
2023/11/08 20:45:22;;;;;;;18.30;10.50;;;;;;;6.22;80.83;98851.02;226845;1275;22546;-83
2023/11/08 20:50:27;;;;;;;20.70;11.00;;;;;;;6.27;80.84;98845.95;226902;1275;22536;-83
2023/11/08 20:55:32;;;;;;;18.50;10.50;;;;;;;6.32;80.84;98844.42;226849;1267;22547;-83
2023/11/08 21:00:36;;;;;;;20.10;10.50;;;;;;;6.36;80.79;98841.00;226698;1275;24225;-82
2023/11/08 21:05:40;;;;;;;22.80;11.70;;;;;;;6.41;80.99;98838.44;226815;1275;22544;-82
2023/11/08 21:10:48;;;;;;;21.90;10.80;;;;;;;6.43;81.18;98834.65;226838;1275;22550;-83
2023/11/08 21:15:57;;;;;;;16.20;9.70;;;;;;;6.47;80.97;98829.90;226905;1275;22551;-84
2023/11/08 21:21:06;;;;;;;18.10;10.30;;;;;;;6.50;81.02;98828.92;226846;1275;22547;-84
2023/11/08 21:26:14;;;;;;;18.20;10.10;;;;;;;6.53;80.82;98832.36;226766;1272;22594;-84
2023/11/08 21:31:45;;;;;;;19.10;9.80;;;;;;;6.56;80.70;98833.46;226882;1275;22532;-83
2023/11/08 21:36:48;;;;;;;15.10;8.80;;;;;;;6.58;80.59;98834.35;226918;1273;24225;-83
2023/11/08 21:41:59;;;;;;;16.00;9.80;;;;;;;6.59;80.74;98831.41;226716;1275;22728;-85
2023/11/08 21:47:04;;;;;;;15.70;8.30;;;;;;;6.58;80.80;98829.07;226781;1275;22543;-83
2023/11/08 21:52:09;;;;;;;15.90;8.00;;;;;;;6.57;80.74;98827.45;226792;1272;22591;-84
2023/11/08 21:57:12;;;;;;;13.40;7.00;;;;;;;6.51;80.99;98827.52;226568;1275;22565;-84
2023/11/08 22:02:19;;;;;;;12.70;7.60;;;;;;;6.43;80.69;98829.42;226898;1275;22559;-83
2023/11/08 22:07:28;;;;;;;12.00;7.00;;;;;;;6.35;80.86;98829.95;226753;1275;22544;-83
2023/11/08 22:12:33;;;;;;;13.70;7.10;;;;;;;6.30;80.94;98831.66;226560;1275;25422;-83
2023/11/08 22:17:37;;;;;;;11.70;6.20;;;;;;;6.28;81.26;98827.91;227046;1269;22540;-83
2023/11/08 22:22:40;;;;;;;12.70;6.60;;;;;;;6.26;81.18;98825.83;226916;1275;23179;-85
2023/11/08 22:27:43;;;;;;;10.20;6.30;;;;;;;6.25;81.23;98819.27;226855;1258;24695;-83
2023/11/08 22:32:47;;;;;;;12.00;6.40;;;;;;;6.22;81.19;98813.46;226776;1275;22536;-83
2023/11/08 22:37:53;;;;;;;12.30;6.70;;;;;;;6.17;81.32;98813.07;226882;1275;22659;-84
2023/11/08 22:42:57;;;;;;;17.90;8.00;;;;;;;6.10;81.17;98807.02;226800;1275;23839;-83
2023/11/08 22:48:03;;;;;;;24.80;11.00;;;;;;;6.02;81.09;98803.08;226687;1275;22600;-84
2023/11/08 22:53:51;;;;;;;25.70;12.40;;;;;;;5.94;81.02;98799.20;226879;1259;22605;-84
2023/11/08 22:59:00;;;;;;;26.30;13.70;;;;;;;5.82;81.37;98796.80;226872;1275;22566;-84
2023/11/08 23:04:04;;;;;;;24.00;13.80;;;;;;;5.69;81.52;98795.85;226860;1260;22620;-83
2023/11/08 23:09:10;;;;;;;22.20;12.80;;;;;;;5.58;81.61;98794.39;226770;1275;22546;-84
2023/11/08 23:14:13;;;;;;;22.20;12.40;;;;;;;5.45;81.54;98791.35;226846;1275;22547;-83
2023/11/08 23:19:20;;;;;;;24.90;13.60;;;;;;;5.36;81.73;98789.65;226674;1275;22567;-84
2023/11/08 23:24:29;;;;;;;23.40;12.50;;;;;;;5.27;81.94;98793.45;226701;1275;22555;-83
2023/11/08 23:29:32;;;;;;;25.20;14.10;;;;;;;5.20;81.91;98787.75;226773;1275;22548;-83
2023/11/08 23:34:47;;;;;;;24.00;14.10;;;;;;;5.12;82.06;98785.56;227092;1272;22540;-84
2023/11/08 23:39:53;;;;;;;28.80;15.10;;;;;;;5.05;82.22;98785.08;226773;1275;22550;-84
2023/11/08 23:44:56;;;;;;;32.00;15.60;;;;;;;4.98;82.49;98778.46;226927;1269;22540;-83
2023/11/08 23:50:18;;;;;;;;;;;;;;;;;;;;;
2023/11/08 23:55:31;;;;;;;28.90;16.90;;;;;;;4.83;82.80;98771.05;226968;1256;22554;-84
